createdAt,value
2017-12-26T00:01:24.745Z,2.80
2017-12-26T00:03:52.388Z,2.97
2017-12-26T00:06:20.032Z,3.25
2017-12-26T00:08:47.858Z,4.40
2017-12-26T00:11:15.733Z,3.47
2017-12-26T00:13:43.575Z,2.67
2017-12-26T00:16:12.500Z,2.58
2017-12-26T00:18:40.802Z,2.72
2017-12-26T00:21:08.472Z,3.05
2017-12-26T00:23:37.397Z,2.62
2017-12-26T00:26:04.992Z,5.18
2017-12-26T00:28:32.637Z,2.75
2017-12-26T00:31:00.301Z,2.65
2017-12-26T00:33:28.477Z,2.70
2017-12-26T00:35:56.151Z,3.45
2017-12-26T00:38:23.771Z,2.50
2017-12-26T00:40:51.384Z,2.58
2017-12-26T00:43:19.191Z,2.85
2017-12-26T00:45:47.257Z,3.10
2017-12-26T00:48:15.892Z,2.40
2017-12-26T00:50:43.728Z,2.78
2017-12-26T00:53:11.354Z,2.33
2017-12-26T00:55:38.955Z,2.33
2017-12-26T00:58:06.606Z,3.83
2017-12-26T01:00:34.197Z,5.20
2017-12-26T01:03:02.599Z,2.45
2017-12-26T01:05:30.220Z,2.35
2017-12-26T01:07:58.210Z,3.22
2017-12-26T01:10:26.604Z,3.90
2017-12-26T01:12:55.013Z,2.55
2017-12-26T01:15:22.648Z,3.87
2017-12-26T01:17:51.058Z,2.42
2017-12-26T01:20:18.687Z,2.45
2017-12-26T01:22:46.323Z,2.80
2017-12-26T01:25:15.039Z,4.53
2017-12-26T01:27:42.725Z,2.40
2017-12-26T01:30:11.160Z,2.60
2017-12-26T01:32:38.830Z,2.60
2017-12-26T01:35:06.453Z,2.60
2017-12-26T01:37:34.071Z,5.03
2017-12-26T01:40:01.680Z,2.90
2017-12-26T01:42:30.556Z,3.15
2017-12-26T01:44:58.170Z,3.20
2017-12-26T01:47:25.804Z,2.60
2017-12-26T01:49:53.523Z,3.60
2017-12-26T01:52:21.159Z,3.75
2017-12-26T01:54:48.777Z,2.42
2017-12-26T01:57:16.447Z,2.67
2017-12-26T01:59:44.081Z,2.62
2017-12-26T02:02:11.767Z,2.72
2017-12-26T02:04:39.437Z,3.17
2017-12-26T02:07:07.098Z,2.65
2017-12-26T02:09:34.726Z,2.55
2017-12-26T02:12:02.316Z,2.58
2017-12-26T02:14:29.981Z,2.47
2017-12-26T02:16:57.589Z,3.00
2017-12-26T02:19:27.233Z,3.00
2017-12-26T02:21:56.267Z,3.15
2017-12-26T02:24:23.967Z,3.20
2017-12-26T02:26:52.400Z,4.05
2017-12-26T02:29:20.065Z,4.87
2017-12-26T02:31:48.001Z,5.62
2017-12-26T02:34:16.381Z,8.52
2017-12-26T02:36:44.014Z,7.30
2017-12-26T02:39:11.623Z,5.00
2017-12-26T02:41:40.013Z,5.95
2017-12-26T02:44:08.438Z,10.80
2017-12-26T02:46:36.073Z,6.60
2017-12-26T02:49:03.723Z,8.00
2017-12-26T02:51:32.116Z,8.07
2017-12-26T02:53:59.777Z,9.63
2017-12-26T02:56:28.144Z,7.70
2017-12-26T02:58:56.529Z,9.95
2017-12-26T03:01:24.902Z,10.35
2017-12-26T03:03:52.543Z,8.95
2017-12-26T03:06:20.143Z,7.60
2017-12-26T03:08:47.783Z,12.37
2017-12-26T03:11:15.838Z,10.07
2017-12-26T03:13:43.440Z,8.43
2017-12-26T03:16:11.058Z,10.13
2017-12-26T03:18:38.696Z,7.12
2017-12-26T03:21:07.094Z,8.00
2017-12-26T03:23:34.742Z,10.93
2017-12-26T03:26:02.347Z,8.77
2017-12-26T03:28:30.004Z,7.85
2017-12-26T03:30:57.655Z,7.68
2017-12-26T03:33:25.275Z,6.97
2017-12-26T03:35:52.871Z,8.00
2017-12-26T03:38:20.507Z,8.85
2017-12-26T03:40:48.107Z,6.10
2017-12-26T03:43:15.738Z,15.93
2017-12-26T03:45:43.341Z,8.40
2017-12-26T03:48:11.759Z,7.95
2017-12-26T03:50:39.369Z,6.75
2017-12-26T03:53:07.005Z,7.65
2017-12-26T03:55:34.658Z,7.40
2017-12-26T03:58:02.634Z,7.75
2017-12-26T04:00:30.292Z,6.28
2017-12-26T04:02:57.929Z,7.78
2017-12-26T04:05:25.610Z,6.03
2017-12-26T04:07:53.245Z,6.62
2017-12-26T04:10:20.878Z,7.30
2017-12-26T04:12:48.507Z,6.50
2017-12-26T04:15:16.165Z,7.40
2017-12-26T04:17:44.566Z,6.15
2017-12-26T04:20:12.186Z,7.65
2017-12-26T04:22:39.826Z,7.03
2017-12-26T04:25:07.436Z,8.25
2017-12-26T04:27:35.079Z,8.77
2017-12-26T04:30:02.670Z,9.25
2017-12-26T04:32:31.078Z,6.32
2017-12-26T04:34:58.693Z,9.88
2017-12-26T04:37:26.323Z,9.02
2017-12-26T04:39:53.929Z,9.02
2017-12-26T04:42:21.542Z,8.75
2017-12-26T04:44:49.134Z,7.30
2017-12-26T04:47:16.744Z,7.82
2017-12-26T04:49:45.115Z,13.23
2017-12-26T04:52:12.728Z,8.70
2017-12-26T04:54:40.526Z,9.52
2017-12-26T04:57:08.160Z,9.65
2017-12-26T04:59:35.762Z,12.32
2017-12-26T05:02:03.393Z,10.05
2017-12-26T05:04:31.008Z,9.05
2017-12-26T05:06:58.616Z,12.57
2017-12-26T05:09:26.575Z,13.15
2017-12-26T05:11:54.234Z,9.30
2017-12-26T05:14:22.624Z,9.43
2017-12-26T05:16:51.056Z,14.23
2017-12-26T05:19:18.719Z,8.98
2017-12-26T05:21:46.335Z,6.37
2017-12-26T05:24:14.722Z,7.12
2017-12-26T05:26:43.056Z,10.15
2017-12-26T05:29:10.684Z,7.30
2017-12-26T05:31:38.296Z,13.70
2017-12-26T05:34:05.919Z,7.68
2017-12-26T05:36:33.580Z,8.50
2017-12-26T05:39:01.958Z,11.38
2017-12-26T05:41:30.337Z,9.68
2017-12-26T05:43:58.697Z,7.55
2017-12-26T05:46:26.330Z,8.88
2017-12-26T05:48:53.988Z,7.50
2017-12-26T05:51:21.585Z,7.28
2017-12-26T05:53:49.189Z,10.05
2017-12-26T05:56:16.799Z,6.93
2017-12-26T05:58:44.444Z,7.40
2017-12-26T06:01:12.092Z,9.73
2017-12-26T06:03:40.475Z,9.85
2017-12-26T06:06:08.820Z,6.72
2017-12-26T06:08:36.435Z,8.65
2017-12-26T06:11:04.060Z,9.45
2017-12-26T06:13:31.660Z,8.90
2017-12-26T06:15:59.270Z,13.30
2017-12-26T06:18:26.879Z,8.13
2017-12-26T06:20:55.262Z,9.30
2017-12-26T06:23:23.664Z,7.70
2017-12-26T06:25:51.341Z,9.18
2017-12-26T06:28:19.052Z,8.38
2017-12-26T06:30:46.646Z,9.15
2017-12-26T06:33:15.008Z,8.15
2017-12-26T06:35:42.628Z,6.28
2017-12-26T06:38:10.242Z,8.73
2017-12-26T06:40:37.903Z,8.05
2017-12-26T06:43:06.284Z,8.45
2017-12-26T06:45:33.927Z,6.50
2017-12-26T06:48:01.571Z,7.95
2017-12-26T06:50:29.198Z,10.68
2017-12-26T06:52:56.775Z,10.75
2017-12-26T06:55:25.144Z,6.60
2017-12-26T06:57:53.555Z,9.45
2017-12-26T07:00:21.936Z,10.15
2017-12-26T07:02:50.295Z,6.85
2017-12-26T07:05:17.894Z,7.32
2017-12-26T07:07:45.548Z,10.98
2017-12-26T07:10:13.927Z,6.95
2017-12-26T07:12:41.543Z,7.87
2017-12-26T07:15:09.159Z,25.92
2017-12-26T07:17:37.565Z,11.50
2017-12-26T07:20:05.212Z,9.30
2017-12-26T07:22:33.600Z,6.95
2017-12-26T07:25:01.984Z,6.80
2017-12-26T07:27:29.638Z,6.22
2017-12-26T07:29:57.248Z,5.40
2017-12-26T07:32:24.890Z,5.43
2017-12-26T07:34:52.527Z,4.90
2017-12-26T07:37:20.916Z,5.50
2017-12-26T07:39:49.302Z,7.32
2017-12-26T07:42:17.707Z,7.18
2017-12-26T07:44:45.530Z,4.12
2017-12-26T07:47:15.413Z,6.05
2017-12-26T07:49:44.036Z,5.55
2017-12-26T07:52:11.863Z,3.45
2017-12-26T07:54:39.494Z,4.80
2017-12-26T07:57:07.169Z,3.97
2017-12-26T07:59:35.804Z,4.70
2017-12-26T08:02:03.711Z,3.03
2017-12-26T08:04:32.356Z,4.03
2017-12-26T08:07:00.167Z,3.17
2017-12-26T08:09:29.708Z,2.80
2017-12-26T08:11:57.425Z,3.50
2017-12-26T08:14:25.252Z,3.25
2017-12-26T08:16:52.873Z,5.53
2017-12-26T08:19:20.715Z,3.43
2017-12-26T08:21:49.162Z,3.10
2017-12-26T08:24:17.789Z,4.00
2017-12-26T08:26:45.690Z,3.60
2017-12-26T08:29:13.821Z,3.70
2017-12-26T08:31:41.599Z,4.70
2017-12-26T08:34:09.478Z,3.17
2017-12-26T08:36:37.151Z,3.53
2017-12-26T08:39:05.227Z,3.17
2017-12-26T08:41:32.863Z,3.55
2017-12-26T08:44:00.563Z,3.40
2017-12-26T08:46:28.222Z,3.80
2017-12-26T08:48:56.069Z,3.80
2017-12-26T08:51:25.405Z,3.53
2017-12-26T08:53:53.308Z,4.10
2017-12-26T08:56:22.145Z,4.35
2017-12-26T08:58:50.091Z,4.62
2017-12-26T09:01:17.744Z,3.80
2017-12-26T09:03:45.355Z,5.97
2017-12-26T09:06:13.015Z,4.70
2017-12-26T09:08:40.698Z,4.15
2017-12-26T09:11:08.493Z,6.97
2017-12-26T09:13:36.577Z,4.40
2017-12-26T09:16:04.400Z,4.43
2017-12-26T09:18:32.047Z,3.90
2017-12-26T09:21:00.585Z,4.45
2017-12-26T09:23:28.351Z,3.67
2017-12-26T09:25:55.991Z,3.50
2017-12-26T09:28:24.800Z,3.47
2017-12-26T09:30:52.578Z,3.67
2017-12-26T09:33:20.305Z,3.30
2017-12-26T09:35:48.449Z,3.08
2017-12-26T09:38:16.385Z,3.22
2017-12-26T09:40:44.133Z,3.25
2017-12-26T09:43:12.250Z,3.17
2017-12-26T09:45:39.866Z,2.97
2017-12-26T09:48:07.487Z,3.25
2017-12-26T09:50:35.148Z,3.60
2017-12-26T09:53:02.762Z,3.75
2017-12-26T09:55:31.185Z,3.45
2017-12-26T09:57:58.832Z,3.03
2017-12-26T10:00:26.487Z,3.70
2017-12-26T10:02:54.912Z,3.10
2017-12-26T10:05:22.589Z,3.20
2017-12-26T10:07:50.236Z,2.87
2017-12-26T10:10:17.888Z,3.30
2017-12-26T10:12:45.525Z,3.55
2017-12-26T10:15:13.920Z,3.70
2017-12-26T10:17:42.324Z,3.55
2017-12-26T10:20:09.936Z,4.20
2017-12-26T10:22:37.550Z,3.05
2017-12-26T10:25:05.128Z,3.53
2017-12-26T10:27:32.741Z,4.25
2017-12-26T10:30:01.142Z,5.45
2017-12-26T10:32:29.586Z,3.92
2017-12-26T10:34:57.218Z,3.40
2017-12-26T10:37:24.843Z,3.90
2017-12-26T10:39:52.434Z,3.72
2017-12-26T10:42:20.835Z,4.40
2017-12-26T10:44:48.477Z,12.20
2017-12-26T10:47:16.911Z,4.18
2017-12-26T10:49:44.541Z,4.10
2017-12-26T10:52:12.205Z,4.40
2017-12-26T10:54:39.940Z,4.27
2017-12-26T10:57:08.547Z,3.87
2017-12-26T10:59:36.335Z,3.87
2017-12-26T11:02:03.938Z,4.32
2017-12-26T11:04:31.589Z,6.03
2017-12-26T11:06:59.413Z,4.00
2017-12-26T11:09:27.363Z,4.70
2017-12-26T11:11:55.151Z,4.60
2017-12-26T11:14:22.826Z,7.05
2017-12-26T11:16:50.681Z,5.33
2017-12-26T11:19:18.323Z,4.68
2017-12-26T11:21:45.968Z,3.93
2017-12-26T11:24:13.597Z,3.80
2017-12-26T11:26:41.199Z,4.93
2017-12-26T11:29:08.817Z,4.43
2017-12-26T11:31:36.444Z,3.72
2017-12-26T11:34:04.103Z,4.22
2017-12-26T11:36:31.747Z,3.83
2017-12-26T11:38:59.359Z,5.47
2017-12-26T11:41:27.307Z,4.40
2017-12-26T11:43:54.966Z,4.90
2017-12-26T11:46:22.589Z,4.00
2017-12-26T11:48:50.231Z,4.90
2017-12-26T11:51:18.161Z,4.00
2017-12-26T11:53:45.815Z,3.67
2017-12-26T11:56:14.255Z,4.60
2017-12-26T11:58:41.872Z,4.20
2017-12-26T12:01:10.530Z,4.10
2017-12-26T12:03:38.289Z,3.60
2017-12-26T12:06:06.876Z,3.50
2017-12-26T12:08:34.750Z,3.25
2017-12-26T12:11:02.960Z,3.62
2017-12-26T12:13:30.668Z,3.87
2017-12-26T12:15:59.148Z,3.67
2017-12-26T12:18:26.950Z,3.50
2017-12-26T12:20:54.843Z,3.67
2017-12-26T12:23:22.513Z,3.62
2017-12-26T12:25:50.359Z,3.73
2017-12-26T12:28:17.977Z,4.68
2017-12-26T12:30:46.406Z,5.20
2017-12-26T12:33:14.114Z,4.10
2017-12-26T12:35:42.531Z,5.30
2017-12-26T12:38:10.158Z,4.25
2017-12-26T12:40:37.831Z,4.20
2017-12-26T12:43:05.773Z,4.43
2017-12-26T12:45:34.408Z,4.20
2017-12-26T12:48:02.083Z,6.18
2017-12-26T12:50:29.770Z,4.45
2017-12-26T12:52:58.331Z,4.65
2017-12-26T12:55:26.720Z,5.85
2017-12-26T12:57:54.410Z,4.35
2017-12-26T13:00:22.100Z,3.70
2017-12-26T13:02:49.757Z,3.80
2017-12-26T13:05:17.382Z,4.05
2017-12-26T13:07:46.120Z,4.62
2017-12-26T13:10:13.753Z,4.55
2017-12-26T13:12:41.489Z,4.37
2017-12-26T13:15:10.811Z,4.40
2017-12-26T13:17:38.472Z,4.30
2017-12-26T13:20:06.210Z,4.00
2017-12-26T13:22:34.274Z,4.20
2017-12-26T13:25:02.470Z,3.65
2017-12-26T13:27:30.145Z,4.32
2017-12-26T13:29:57.810Z,4.40
2017-12-26T13:32:25.473Z,4.00
2017-12-26T13:34:53.093Z,11.02
2017-12-26T13:37:20.711Z,3.53
2017-12-26T13:39:48.327Z,5.75
2017-12-26T13:42:15.961Z,4.35
2017-12-26T13:44:43.986Z,4.40
2017-12-26T13:47:12.054Z,4.53
2017-12-26T13:49:40.555Z,4.65
2017-12-26T13:52:08.636Z,3.72
2017-12-26T13:54:36.622Z,4.30
2017-12-26T13:57:04.570Z,4.15
2017-12-26T13:59:33.731Z,3.33
2017-12-26T14:02:01.718Z,5.50
2017-12-26T14:04:30.346Z,4.50
2017-12-26T14:06:58.341Z,5.72
2017-12-26T14:09:26.365Z,3.85
2017-12-26T14:11:54.445Z,3.50
2017-12-26T14:14:22.099Z,4.03
2017-12-26T14:16:49.726Z,3.70
2017-12-26T14:19:17.372Z,6.70
2017-12-26T14:21:45.002Z,4.07
2017-12-26T14:24:13.014Z,3.92
2017-12-26T14:26:40.657Z,3.58
2017-12-26T14:29:08.310Z,3.08
2017-12-26T14:31:35.959Z,3.55
2017-12-26T14:34:03.574Z,3.58
2017-12-26T14:36:31.236Z,3.25
2017-12-26T14:38:59.056Z,3.47
2017-12-26T14:41:27.495Z,3.75
2017-12-26T14:43:55.146Z,2.87
2017-12-26T14:46:22.784Z,2.95
2017-12-26T14:48:51.915Z,3.53
2017-12-26T14:51:19.560Z,3.17
2017-12-26T14:53:47.229Z,3.50
2017-12-26T14:56:14.849Z,3.50
2017-12-26T14:58:42.522Z,4.25
2017-12-26T15:01:10.278Z,3.35
2017-12-26T15:03:37.917Z,2.90
2017-12-26T15:06:06.148Z,3.50
2017-12-26T15:08:33.775Z,2.75
2017-12-26T15:11:01.362Z,2.60
2017-12-26T15:13:29.009Z,4.72
2017-12-26T15:15:56.939Z,2.72
2017-12-26T15:18:25.335Z,2.42
2017-12-26T15:20:52.977Z,2.40
2017-12-26T15:23:20.642Z,2.87
2017-12-26T15:25:49.060Z,8.07
2017-12-26T15:28:16.702Z,4.15
2017-12-26T15:30:44.302Z,5.57
2017-12-26T15:33:11.911Z,3.85
2017-12-26T15:35:39.594Z,5.03
2017-12-26T15:38:09.867Z,3.97
2017-12-26T15:40:37.487Z,2.20
2017-12-26T15:43:05.226Z,3.62
2017-12-26T15:45:33.188Z,2.70
2017-12-26T15:48:01.732Z,2.83
2017-12-26T15:50:29.339Z,2.80
2017-12-26T15:52:57.356Z,3.20
2017-12-26T15:55:25.865Z,2.70
2017-12-26T15:57:53.746Z,2.70
2017-12-26T16:00:21.586Z,2.30
2017-12-26T16:02:50.602Z,3.22
2017-12-26T16:05:18.491Z,2.87
2017-12-26T16:07:46.387Z,2.33
2017-12-26T16:10:14.022Z,2.40
2017-12-26T16:12:41.715Z,2.00
2017-12-26T16:15:09.353Z,1.85
2017-12-26T16:17:37.118Z,1.73
2017-12-26T16:20:04.749Z,1.70
2017-12-26T16:22:32.457Z,1.80
2017-12-26T16:25:00.517Z,1.85
2017-12-26T16:27:28.163Z,1.95
2017-12-26T16:29:56.086Z,1.73
2017-12-26T16:32:23.763Z,1.90
2017-12-26T16:34:51.412Z,1.70
2017-12-26T16:37:19.058Z,1.80
2017-12-26T16:39:47.483Z,1.62
2017-12-26T16:42:15.172Z,1.98
2017-12-26T16:44:42.820Z,2.22
2017-12-26T16:47:11.650Z,3.12
2017-12-26T16:49:39.285Z,1.50
2017-12-26T16:52:06.936Z,2.33
2017-12-26T16:54:34.710Z,1.98
2017-12-26T16:57:02.328Z,3.15
2017-12-26T16:59:30.731Z,2.42
2017-12-26T17:01:58.415Z,2.47
2017-12-26T17:04:26.049Z,2.15
2017-12-26T17:06:54.516Z,1.85
2017-12-26T17:09:22.147Z,1.90
2017-12-26T17:11:49.809Z,2.00
2017-12-26T17:14:17.709Z,3.05
2017-12-26T17:16:45.577Z,2.00
2017-12-26T17:19:13.455Z,1.73
2017-12-26T17:21:41.198Z,2.08
2017-12-26T17:24:09.004Z,2.00
2017-12-26T17:26:38.599Z,2.30
2017-12-26T17:29:06.575Z,2.10
2017-12-26T17:31:34.314Z,2.20
2017-12-26T17:34:02.196Z,1.77
2017-12-26T17:36:29.988Z,1.83
2017-12-26T17:38:57.838Z,2.83
2017-12-26T17:41:25.554Z,3.37
2017-12-26T17:43:54.044Z,3.50
2017-12-26T17:46:22.564Z,3.53
2017-12-26T17:48:50.361Z,1.80
2017-12-26T17:51:18.219Z,2.05
2017-12-26T17:53:45.999Z,1.80
2017-12-26T17:56:13.734Z,2.00
2017-12-26T17:58:41.654Z,2.67
2017-12-26T18:01:09.394Z,5.60
2017-12-26T18:03:37.173Z,2.20
2017-12-26T18:06:05.345Z,2.25
2017-12-26T18:08:33.207Z,1.80
2017-12-26T18:11:00.922Z,2.30
2017-12-26T18:13:29.764Z,2.67
2017-12-26T18:15:57.610Z,2.37
2017-12-26T18:18:26.243Z,4.62
2017-12-26T18:20:54.286Z,2.83
2017-12-26T18:23:22.105Z,2.40
2017-12-26T18:25:50.202Z,6.10
2017-12-26T18:28:18.059Z,10.32
2017-12-26T18:30:46.537Z,5.37
2017-12-26T18:33:14.178Z,5.40
2017-12-26T18:35:41.784Z,5.03
2017-12-26T18:38:09.681Z,4.15
2017-12-26T18:40:37.606Z,2.33
2017-12-26T18:43:05.259Z,2.00
2017-12-26T18:45:32.918Z,3.17
2017-12-26T18:48:00.574Z,3.97
2017-12-26T18:50:28.202Z,2.30
2017-12-26T18:52:55.821Z,2.62
2017-12-26T18:55:23.831Z,4.05
2017-12-26T18:57:51.593Z,2.45
2017-12-26T19:00:19.223Z,2.45
2017-12-26T19:02:46.923Z,2.30
2017-12-26T19:05:14.565Z,2.22
2017-12-26T19:07:42.829Z,2.25
2017-12-26T19:10:10.501Z,5.57
2017-12-26T19:12:38.137Z,1.98
2017-12-26T19:15:06.651Z,2.00
2017-12-26T19:17:34.361Z,6.47
2017-12-26T19:20:02.048Z,2.40
2017-12-26T19:22:30.274Z,1.80
2017-12-26T19:24:58.124Z,3.17
2017-12-26T19:27:26.711Z,2.83
2017-12-26T19:29:54.349Z,3.58
2017-12-26T19:32:22.145Z,5.60
2017-12-26T19:34:49.904Z,3.95
2017-12-26T19:37:17.579Z,1.50
2017-12-26T19:39:46.012Z,2.28
2017-12-26T19:42:13.649Z,4.22
2017-12-26T19:44:41.339Z,1.67
2017-12-26T19:47:10.169Z,1.70
2017-12-26T19:49:38.056Z,2.28
2017-12-26T19:52:06.455Z,2.62
2017-12-26T19:54:35.034Z,3.28
2017-12-26T19:57:02.875Z,1.95
2017-12-26T19:59:32.855Z,2.97
2017-12-26T20:02:00.518Z,2.33
2017-12-26T20:04:28.367Z,2.53
2017-12-26T20:06:56.024Z,3.00
2017-12-26T20:09:23.845Z,3.85
2017-12-26T20:11:51.641Z,3.00
2017-12-26T20:14:19.332Z,2.12
2017-12-26T20:16:47.951Z,4.00
2017-12-26T20:19:15.759Z,3.20
2017-12-26T20:21:45.716Z,8.07
2017-12-26T20:24:13.594Z,5.10
2017-12-26T20:26:41.240Z,3.55
2017-12-26T20:29:09.806Z,2.80
2017-12-26T20:31:39.319Z,3.30
2017-12-26T20:34:16.654Z,3.85
2017-12-26T20:36:45.509Z,3.35
2017-12-26T20:39:13.308Z,3.00
2017-12-26T20:41:42.719Z,3.60
2017-12-26T20:44:11.640Z,2.22
2017-12-26T20:46:39.375Z,3.83
2017-12-26T20:49:07.886Z,8.25
2017-12-26T20:51:35.502Z,3.72
2017-12-26T20:54:03.940Z,4.78
2017-12-26T20:56:31.568Z,2.67
2017-12-26T20:59:00.014Z,5.25
2017-12-26T21:01:27.681Z,4.62
2017-12-26T21:03:55.317Z,3.90
2017-12-26T21:06:23.026Z,3.25
2017-12-26T21:08:51.835Z,4.35
2017-12-26T21:11:19.779Z,3.35
2017-12-26T21:13:47.439Z,5.20
2017-12-26T21:16:15.064Z,4.28
2017-12-26T21:18:43.410Z,3.78
2017-12-26T21:21:11.656Z,3.25
2017-12-26T21:23:39.479Z,2.45
2017-12-26T21:26:07.250Z,4.62
2017-12-26T21:28:35.772Z,3.97
2017-12-26T21:31:03.518Z,4.53
2017-12-26T21:33:32.046Z,3.62
2017-12-26T21:35:59.818Z,3.10
2017-12-26T21:38:27.593Z,3.08
2017-12-26T21:40:55.368Z,4.25
2017-12-26T21:43:23.124Z,3.90
2017-12-26T21:45:51.845Z,3.00
2017-12-26T21:48:22.161Z,3.28
2017-12-26T21:50:56.001Z,2.95
2017-12-26T21:53:24.001Z,4.47
2017-12-26T21:55:51.885Z,7.45
2017-12-26T21:58:19.512Z,4.05
2017-12-26T22:00:47.222Z,4.55
2017-12-26T22:03:14.898Z,5.60
2017-12-26T22:05:42.557Z,4.37
2017-12-26T22:08:11.628Z,5.78
2017-12-26T22:10:40.048Z,4.57
2017-12-26T22:13:07.678Z,3.55
2017-12-26T22:15:35.305Z,3.15
2017-12-26T22:18:02.980Z,2.70
2017-12-26T22:20:30.623Z,4.00
2017-12-26T22:22:58.348Z,5.82
2017-12-26T22:25:25.957Z,3.00
2017-12-26T22:27:53.661Z,4.72
2017-12-26T22:30:21.512Z,3.72
2017-12-26T22:32:49.143Z,4.22
2017-12-26T22:35:16.719Z,5.10
2017-12-26T22:37:45.161Z,6.72
2017-12-26T22:40:12.814Z,3.37
2017-12-26T22:42:40.470Z,4.75
2017-12-26T22:45:08.074Z,3.22
2017-12-26T22:47:36.473Z,3.90
2017-12-26T22:50:04.088Z,6.05
2017-12-26T22:52:31.734Z,4.97
2017-12-26T22:54:59.323Z,6.35
2017-12-26T22:57:26.945Z,5.10
2017-12-26T22:59:54.627Z,4.95
2017-12-26T23:02:22.232Z,11.43
2017-12-26T23:04:49.864Z,6.72
2017-12-26T23:07:17.531Z,4.40
2017-12-26T23:09:45.145Z,5.07
2017-12-26T23:12:13.512Z,8.13
2017-12-26T23:14:47.269Z,9.27
2017-12-26T23:17:20.542Z,4.75
2017-12-26T23:19:54.619Z,4.62
2017-12-26T23:22:22.255Z,5.43
2017-12-26T23:24:55.522Z,7.97
2017-12-26T23:27:28.890Z,4.82
2017-12-26T23:30:02.300Z,4.40
2017-12-26T23:32:37.903Z,3.78
2017-12-26T23:35:11.495Z,4.75
2017-12-26T23:37:44.745Z,4.37
2017-12-26T23:40:18.084Z,4.82
2017-12-26T23:42:51.693Z,5.25
2017-12-26T23:45:25.073Z,3.72
2017-12-26T23:47:58.217Z,3.90
2017-12-26T23:50:31.486Z,3.62
2017-12-26T23:53:04.995Z,3.58
2017-12-26T23:55:38.235Z,3.30
2017-12-26T23:58:12.455Z,3.55
